createdAt,value
2023-01-19T00:04:11.667Z,-0.46
2023-01-19T00:09:13.262Z,-1.10
2023-01-19T00:14:14.844Z,1.32
2023-01-19T00:19:16.679Z,1.11
2023-01-19T00:24:18.299Z,0.37
2023-01-19T00:29:20.474Z,0.19
2023-01-19T00:34:22.082Z,0.42
2023-01-19T00:39:23.729Z,0.64
2023-01-19T00:44:25.338Z,-0.68
2023-01-19T00:49:26.959Z,-0.77
2023-01-19T00:54:28.578Z,0.23
2023-01-19T00:59:30.188Z,0.63
2023-01-19T01:04:32.177Z,-0.53
2023-01-19T01:09:33.809Z,0.44
2023-01-19T01:14:35.540Z,0.16
2023-01-19T05:05:21.760Z,-2.24
2023-01-19T05:10:23.914Z,-2.16
2023-01-19T05:15:25.522Z,-1.91
2023-01-19T05:20:27.145Z,-2.50
2023-01-19T05:25:29.074Z,-1.93
2023-01-19T05:30:30.784Z,-1.63
2023-01-19T05:35:36.179Z,-1.43
2023-01-19T05:40:38.374Z,-1.76
2023-01-19T05:45:41.157Z,-1.60
2023-01-19T05:50:42.849Z,-1.31
2023-01-19T05:55:45.037Z,-2.09
2023-01-19T06:00:47.122Z,-1.38
2023-01-19T06:05:48.752Z,-1.22
2023-01-19T06:10:50.473Z,-1.47
2023-01-19T06:16:00.258Z,-0.93
2023-01-19T06:21:07.420Z,-1.88
2023-01-19T06:26:09.061Z,-1.58
2023-01-19T06:31:10.698Z,-1.30
2023-01-19T06:36:12.394Z,-2.40
2023-01-19T06:41:14.012Z,-2.60
2023-01-19T06:46:15.765Z,-2.69
2023-01-19T06:51:17.493Z,-3.01
2023-01-19T06:56:19.328Z,-2.42
2023-01-19T07:01:22.107Z,-2.48
2023-01-19T07:06:24.238Z,-1.64
2023-01-19T07:11:32.851Z,-1.42
2023-01-19T07:16:34.833Z,-2.18
2023-01-19T07:21:37.093Z,-2.65
2023-01-19T07:26:38.716Z,-1.45
2023-01-19T07:31:40.682Z,-1.62
2023-01-19T07:36:42.402Z,-2.13
2023-01-19T07:41:44.385Z,-2.93
2023-01-19T07:46:46.335Z,-1.07
2023-01-19T07:51:48.069Z,-1.39
2023-01-19T07:56:49.850Z,-1.45
2023-01-19T08:01:52.297Z,-1.82
2023-01-19T08:06:55.450Z,-1.58
2023-01-19T08:11:57.746Z,-2.23
2023-01-19T08:17:01.042Z,-1.59
2023-01-19T08:22:02.747Z,-1.66
2023-01-19T08:27:04.499Z,-0.84
2023-01-19T08:32:06.832Z,-0.94
2023-01-19T08:37:08.696Z,-1.26
2023-01-19T08:42:10.477Z,-0.43
2023-01-19T08:47:12.166Z,-1.74
2023-01-19T08:52:13.924Z,-1.26
2023-01-19T08:57:16.329Z,-1.62
2023-01-19T09:02:18.122Z,-0.50
2023-01-19T09:07:19.988Z,-0.51
2023-01-19T09:12:21.846Z,-1.84
2023-01-19T09:17:23.758Z,-0.83
2023-01-19T09:22:25.588Z,-1.44
2023-01-19T09:27:27.444Z,0.05
2023-01-19T09:32:29.294Z,-0.70
2023-01-19T09:37:30.926Z,-0.39
2023-01-19T09:42:51.231Z,-0.59
2023-01-19T09:47:54.626Z,0.02
2023-01-19T09:53:14.185Z,0.49
2023-01-19T09:58:19.208Z,-0.33
2023-01-19T10:03:22.008Z,0.03
2023-01-19T10:09:00.946Z,0.48
2023-01-19T10:14:13.476Z,0.74
2023-01-19T10:19:31.084Z,0.68
2023-01-19T10:24:38.754Z,0.15
2023-01-19T10:29:40.761Z,0.86
2023-01-19T10:34:42.544Z,0.33
2023-01-19T10:40:10.444Z,0.38
2023-01-19T10:45:28.633Z,0.29
2023-01-19T10:50:33.781Z,0.66
2023-01-19T10:55:38.270Z,0.43
2023-01-19T11:06:23.505Z,-2.07
2023-01-19T11:11:25.385Z,-1.04
2023-01-19T11:16:30.846Z,-2.00
2023-01-19T11:21:33.175Z,-1.51
2023-01-19T11:26:40.691Z,-1.94
2023-01-19T11:31:42.440Z,-0.58
2023-01-19T11:36:56.260Z,-0.76
2023-01-19T11:42:03.012Z,-1.32
2023-01-19T11:47:17.061Z,-1.00
2023-01-19T11:52:31.129Z,-0.28
2023-01-19T11:57:32.943Z,-1.75
2023-01-19T12:02:47.031Z,-0.21
2023-01-19T12:07:50.780Z,0.05
2023-01-19T12:12:53.946Z,0.26
2023-01-19T12:18:00.579Z,-0.51
2023-01-19T12:23:11.500Z,0.16
2023-01-19T12:28:15.770Z,0.33
2023-01-19T12:33:33.592Z,0.13
2023-01-19T12:38:46.078Z,-1.55
2023-01-19T12:44:08.365Z,0.64
2023-01-19T12:49:27.477Z,0.43
2023-01-19T12:54:32.575Z,-0.22
2023-01-19T12:59:37.555Z,-0.17
2023-01-19T13:04:39.202Z,0.06
2023-01-19T13:09:42.647Z,0.61
2023-01-19T13:14:44.403Z,0.49
2023-01-19T13:20:21.045Z,0.69
2023-01-19T13:25:30.903Z,0.48
2023-01-19T13:30:35.298Z,0.77
